createdAt,value
2023-04-26T00:00:09.361Z,100230.88
2023-04-26T00:02:38.660Z,100226.84
2023-04-26T00:05:09.966Z,100221.94
2023-04-26T00:07:40.348Z,100225.06
2023-04-26T00:10:09.880Z,100232.09
2023-04-26T00:12:38.568Z,100239.03
2023-04-26T00:15:09.618Z,100229.56
2023-04-26T00:17:39.027Z,100238.09
2023-04-26T00:20:10.021Z,100234.91
2023-04-26T00:22:39.342Z,100223.25
2023-04-26T00:25:08.728Z,100229.97
2023-04-26T00:27:37.372Z,100232.66
2023-04-26T00:30:06.079Z,100228.50
2023-04-26T00:32:37.079Z,100234.91
2023-04-26T00:35:08.389Z,100232.09
2023-04-26T00:37:36.445Z,100236.28
2023-04-26T00:40:06.630Z,100234.38
2023-04-26T00:42:35.562Z,100237.03
2023-04-26T00:45:06.529Z,100233.72
2023-04-26T00:47:36.937Z,100233.09
2023-04-26T00:50:05.689Z,100235.22
2023-04-26T00:52:33.736Z,100237.13
2023-04-26T00:55:02.691Z,100238.19
2023-04-26T00:57:33.190Z,100235.03
2023-04-26T01:00:01.699Z,100234.59
2023-04-26T01:02:30.605Z,100236.09
2023-04-26T01:05:00.439Z,100240.41
2023-04-26T01:07:28.765Z,100241.22
2023-04-26T01:09:59.514Z,100243.31
2023-04-26T01:12:30.778Z,100242.19
2023-04-26T01:14:59.068Z,100237.72
2023-04-26T01:17:27.133Z,100231.69
2023-04-26T01:19:58.374Z,100233.19
2023-04-26T01:22:28.779Z,100223.28
2023-04-26T01:24:59.449Z,100227.75
2023-04-26T01:27:27.438Z,100222.47
2023-04-26T01:29:55.677Z,100220.94
2023-04-26T01:32:25.263Z,100217.53
2023-04-26T01:34:53.200Z,100216.66
2023-04-26T01:37:21.664Z,100214.88
2023-04-26T01:39:49.829Z,100219.47
2023-04-26T01:42:22.638Z,100228.00
2023-04-26T01:44:51.311Z,100223.69
2023-04-26T01:47:19.468Z,100220.28
2023-04-26T01:49:47.641Z,100225.47
2023-04-26T01:52:16.052Z,100234.88
2023-04-26T01:54:43.966Z,100228.88
2023-04-26T01:57:12.377Z,100227.00
2023-04-26T01:59:42.029Z,100232.19
2023-04-26T02:02:10.748Z,100232.31
2023-04-26T02:04:40.112Z,100234.94
2023-04-26T02:07:08.284Z,100234.84
2023-04-26T02:09:47.418Z,100230.44
2023-04-26T02:12:16.470Z,100234.59
2023-04-26T02:14:46.097Z,100236.13
2023-04-26T02:17:14.320Z,100233.34
2023-04-26T02:19:42.702Z,100236.97
2023-04-26T02:22:10.715Z,100242.66
2023-04-26T02:24:42.262Z,100235.09
2023-04-26T02:27:10.338Z,100230.13
2023-04-26T02:29:44.383Z,100230.16
2023-04-26T02:32:15.799Z,100230.97
2023-04-26T02:34:44.726Z,100238.69
2023-04-26T02:37:13.136Z,100239.72
2023-04-26T02:39:41.386Z,100242.00
2023-04-26T02:42:10.519Z,100248.19
2023-04-26T02:44:39.888Z,100243.19
2023-04-26T02:47:09.574Z,100237.50
2023-04-26T02:49:39.960Z,100234.13
2023-04-26T02:52:10.657Z,100227.63
2023-04-26T02:54:39.125Z,100226.13
2023-04-26T02:57:08.614Z,100225.34
2023-04-26T02:59:36.725Z,100222.88
2023-04-26T03:02:04.858Z,100218.56
2023-04-26T03:04:34.228Z,100223.63
2023-04-26T03:07:03.816Z,100227.16
2023-04-26T03:09:35.079Z,100222.97
2023-04-26T03:12:03.501Z,100225.44
2023-04-26T03:14:33.767Z,100216.16
2023-04-26T03:17:05.374Z,100222.03
2023-04-26T03:19:34.927Z,100221.16
2023-04-26T03:22:06.280Z,100222.94
2023-04-26T03:24:34.874Z,100221.94
2023-04-26T03:27:02.790Z,100221.16
2023-04-26T03:29:30.952Z,100219.34
2023-04-26T03:31:59.017Z,100214.41
2023-04-26T03:34:27.609Z,100212.81
2023-04-26T03:36:56.154Z,100218.97
2023-04-26T03:39:25.413Z,100221.53
2023-04-26T03:41:54.101Z,100219.03
2023-04-26T03:44:22.477Z,100222.34
2023-04-26T03:46:51.127Z,100229.09
2023-04-26T03:49:19.551Z,100225.41
2023-04-26T03:51:47.829Z,100229.78
2023-04-26T03:54:17.002Z,100224.91
2023-04-26T03:56:47.774Z,100226.94
2023-04-26T03:59:16.103Z,100227.09
2023-04-26T04:01:44.477Z,100226.41
2023-04-26T04:04:15.416Z,100228.91
2023-04-26T04:06:45.071Z,100230.72
2023-04-26T04:09:13.670Z,100219.63
2023-04-26T04:11:43.045Z,100223.78
2023-04-26T04:14:14.079Z,100219.44
2023-04-26T04:16:42.661Z,100221.84
2023-04-26T04:19:15.033Z,100221.75
2023-04-26T04:21:43.916Z,100220.84
2023-04-26T04:24:13.508Z,100225.16
2023-04-26T04:26:42.695Z,100211.28
2023-04-26T04:29:11.706Z,100220.31
2023-04-26T04:31:42.965Z,100222.44
2023-04-26T04:34:12.010Z,100224.44
2023-04-26T04:36:43.597Z,100226.63
2023-04-26T04:39:16.571Z,100234.81
2023-04-26T04:41:49.401Z,100237.63
2023-04-26T04:44:20.392Z,100239.47
2023-04-26T04:46:50.442Z,100248.13
2023-04-26T04:49:19.615Z,100243.88
2023-04-26T04:51:50.100Z,100248.03
2023-04-26T04:54:19.768Z,100249.50
2023-04-26T04:56:48.749Z,100256.09
2023-04-26T04:59:17.828Z,100258.50
2023-04-26T05:01:48.273Z,100260.06
2023-04-26T05:04:18.750Z,100262.53
2023-04-26T05:06:47.599Z,100264.59
2023-04-26T05:09:18.015Z,100261.34
2023-04-26T05:11:46.783Z,100270.94
2023-04-26T05:14:15.037Z,100274.31
2023-04-26T05:16:43.706Z,100283.94
2023-04-26T05:19:13.432Z,100295.50
2023-04-26T05:21:43.842Z,100302.91
2023-04-26T05:24:13.331Z,100309.22
2023-04-26T05:26:41.765Z,100310.81
2023-04-26T05:29:31.439Z,100305.75
2023-04-26T05:32:02.367Z,100306.31
2023-04-26T05:34:57.057Z,100317.50
2023-04-26T05:37:26.454Z,100316.94
2023-04-26T05:39:54.596Z,100319.66
2023-04-26T05:42:22.903Z,100323.16
2023-04-26T05:44:51.413Z,100329.38
2023-04-26T05:47:19.756Z,100329.97
2023-04-26T05:49:47.676Z,100321.84
2023-04-26T05:52:16.017Z,100323.13
2023-04-26T05:54:45.369Z,100323.88
2023-04-26T05:57:13.683Z,100329.91
2023-04-26T05:59:41.899Z,100331.97
2023-04-26T06:02:10.121Z,100337.16
2023-04-26T06:04:38.696Z,100349.69
2023-04-26T06:07:13.277Z,100353.00
2023-04-26T06:09:41.328Z,100360.03
2023-04-26T06:12:11.142Z,100358.63
2023-04-26T06:14:42.344Z,100364.88
2023-04-26T06:17:15.593Z,100373.19
2023-04-26T06:19:44.378Z,100360.44
2023-04-26T06:22:12.174Z,100359.47
2023-04-26T06:24:40.192Z,100361.69
2023-04-26T06:27:08.353Z,100363.88
2023-04-26T06:29:39.315Z,100363.97
2023-04-26T06:32:07.829Z,100364.19
2023-04-26T06:34:37.448Z,100370.16
2023-04-26T06:37:07.116Z,100362.63
2023-04-26T06:39:38.779Z,100363.22
2023-04-26T06:42:06.964Z,100368.16
2023-04-26T06:45:13.350Z,100374.75
2023-04-26T06:47:41.801Z,100373.09
2023-04-26T06:50:11.205Z,100375.88
2023-04-26T06:52:39.273Z,100368.00
2023-04-26T06:55:07.891Z,100365.94
2023-04-26T06:57:36.156Z,100360.13
2023-04-26T07:00:04.870Z,100361.78
2023-04-26T07:02:34.957Z,100359.78
2023-04-26T07:05:03.586Z,100365.63
2023-04-26T07:07:32.388Z,100357.34
2023-04-26T07:10:00.834Z,100361.69
2023-04-26T07:12:29.228Z,100370.31
2023-04-26T07:14:58.754Z,100358.38
2023-04-26T07:17:27.315Z,100362.38
2023-04-26T07:19:56.916Z,100357.72
2023-04-26T07:22:25.089Z,100363.66
2023-04-26T07:24:52.876Z,100367.25
2023-04-26T07:27:21.159Z,100371.91
2023-04-26T07:29:50.254Z,100372.00
2023-04-26T07:32:18.909Z,100363.78
2023-04-26T07:34:47.273Z,100362.91
2023-04-26T07:37:17.280Z,100361.03
2023-04-26T07:39:45.252Z,100361.59
2023-04-26T07:42:13.493Z,100366.03
2023-04-26T07:44:41.646Z,100359.38
2023-04-26T07:47:13.483Z,100372.28
2023-04-26T07:49:41.992Z,100360.50
2023-04-26T07:52:10.019Z,100360.72
2023-04-26T07:54:40.435Z,100365.38
2023-04-26T07:57:08.619Z,100358.22
2023-04-26T07:59:36.976Z,100367.78
2023-04-26T08:02:05.440Z,100368.03
2023-04-26T08:04:34.980Z,100368.25
2023-04-26T08:07:03.637Z,100366.41
2023-04-26T08:09:32.090Z,100360.06
2023-04-26T08:12:02.015Z,100364.38
2023-04-26T08:14:31.049Z,100362.66
2023-04-26T08:16:59.239Z,100364.69
2023-04-26T08:19:31.217Z,100363.97
2023-04-26T08:21:59.327Z,100363.28
2023-04-26T08:24:27.298Z,100366.38
2023-04-26T08:26:56.301Z,100362.50
2023-04-26T08:29:26.919Z,100362.47
2023-04-26T08:31:55.121Z,100376.75
2023-04-26T08:34:23.422Z,100371.75
2023-04-26T08:36:51.557Z,100368.56
2023-04-26T08:39:19.796Z,100369.94
2023-04-26T08:41:51.011Z,100364.44
2023-04-26T08:44:24.400Z,100367.22
2023-04-26T08:47:03.002Z,100364.69
2023-04-26T08:49:38.532Z,100373.41
2023-04-26T08:52:09.460Z,100374.53
2023-04-26T08:54:38.135Z,100361.81
2023-04-26T08:57:07.526Z,100358.06
2023-04-26T08:59:37.139Z,100359.13
2023-04-26T09:02:07.872Z,100354.09
2023-04-26T09:04:36.258Z,100356.50
2023-04-26T09:07:05.734Z,100344.94
2023-04-26T09:09:42.720Z,100346.69
2023-04-26T09:12:11.114Z,100342.56
2023-04-26T09:14:40.278Z,100337.50
2023-04-26T09:17:25.339Z,100340.13
2023-04-26T09:19:53.386Z,100333.38
2023-04-26T09:22:29.070Z,100334.13
2023-04-26T09:24:57.310Z,100335.19
2023-04-26T09:27:33.349Z,100330.59
2023-04-26T09:30:06.129Z,100341.09
2023-04-26T09:32:48.926Z,100339.44
2023-04-26T09:35:23.006Z,100340.00
2023-04-26T09:37:59.419Z,100333.34
2023-04-26T09:40:28.985Z,100338.34
2023-04-26T09:43:01.014Z,100331.47
2023-04-26T09:45:29.729Z,100331.75
2023-04-26T09:48:13.411Z,100337.50
2023-04-26T09:50:41.302Z,100331.69
2023-04-26T09:53:09.157Z,100324.16
2023-04-26T09:55:36.823Z,100318.03
2023-04-26T09:58:10.857Z,100330.72
2023-04-26T10:00:39.775Z,100322.75
2023-04-26T10:03:10.849Z,100321.34
2023-04-26T10:05:39.520Z,100326.13
2023-04-26T10:08:08.456Z,100316.66
2023-04-26T10:10:36.650Z,100321.63
2023-04-26T10:13:04.677Z,100323.28
2023-04-26T10:15:32.777Z,100325.00
2023-04-26T10:18:01.741Z,100318.59
2023-04-26T10:20:31.652Z,100313.81
2023-04-26T10:23:01.586Z,100325.34
2023-04-26T10:25:38.910Z,100324.75
2023-04-26T10:28:06.880Z,100319.38
2023-04-26T10:30:34.892Z,100318.38
2023-04-26T10:33:17.800Z,100314.19
2023-04-26T10:36:11.908Z,100315.78
2023-04-26T10:38:40.649Z,100310.53
2023-04-26T10:41:27.262Z,100305.28
2023-04-26T10:43:55.459Z,100300.34
2023-04-26T10:46:37.917Z,100295.41
2023-04-26T10:49:19.783Z,100303.03
2023-04-26T10:52:06.065Z,100303.75
2023-04-26T10:54:47.800Z,100301.22
2023-04-26T10:57:16.146Z,100300.66
2023-04-26T10:59:59.277Z,100302.13
2023-04-26T11:02:42.172Z,100302.81
2023-04-26T11:05:10.359Z,100300.09
2023-04-26T11:07:38.364Z,100303.63
2023-04-26T11:10:11.135Z,100303.28
2023-04-26T11:12:57.734Z,100308.25
2023-04-26T11:15:25.743Z,100297.00
2023-04-26T11:17:53.898Z,100290.03
2023-04-26T11:20:22.157Z,100282.94
2023-04-26T11:22:50.526Z,100284.41
2023-04-26T11:25:20.307Z,100283.72
2023-04-26T11:27:48.622Z,100278.25
2023-04-26T11:30:19.591Z,100273.38
2023-04-26T11:32:47.965Z,100264.97
2023-04-26T11:35:16.615Z,100262.88
2023-04-26T11:37:46.659Z,100252.59
2023-04-26T11:40:17.486Z,100260.41
2023-04-26T11:42:47.328Z,100263.44
2023-04-26T11:45:16.928Z,100264.19
2023-04-26T11:47:45.700Z,100257.94
2023-04-26T11:50:13.880Z,100270.31
2023-04-26T11:52:42.757Z,100265.28
2023-04-26T11:55:11.469Z,100266.44
2023-04-26T11:57:39.925Z,100274.44
2023-04-26T12:00:12.005Z,100280.97
2023-04-26T12:02:40.439Z,100273.56
2023-04-26T12:05:09.955Z,100270.75
2023-04-26T12:07:38.746Z,100267.50
2023-04-26T12:10:15.229Z,100273.94
2023-04-26T12:12:48.817Z,100253.53
2023-04-26T12:15:18.596Z,100256.03
2023-04-26T12:17:53.750Z,100265.47
2023-04-26T12:20:27.512Z,100257.34
2023-04-26T12:23:02.190Z,100250.22
2023-04-26T12:25:30.368Z,100232.47
2023-04-26T12:27:58.887Z,100228.91
2023-04-26T12:30:29.334Z,100228.97
2023-04-26T12:33:15.611Z,100228.31
2023-04-26T12:35:44.885Z,100227.97
2023-04-26T12:38:13.688Z,100220.78
2023-04-26T12:40:42.554Z,100218.56
2023-04-26T12:43:11.011Z,100223.50
2023-04-26T12:45:40.328Z,100225.41
2023-04-26T12:48:08.195Z,100227.69
2023-04-26T12:50:36.420Z,100224.53
2023-04-26T12:53:04.567Z,100221.47
2023-04-26T12:55:33.118Z,100227.88
2023-04-26T12:58:01.310Z,100225.44
2023-04-26T13:00:29.755Z,100232.66
2023-04-26T13:02:59.566Z,100227.88
2023-04-26T13:05:29.725Z,100231.41
2023-04-26T13:07:57.954Z,100229.16
2023-04-26T13:10:26.230Z,100220.59
2023-04-26T13:12:54.953Z,100214.44
2023-04-26T13:15:25.110Z,100215.94
2023-04-26T13:17:53.573Z,100219.25
2023-04-26T13:20:25.081Z,100226.66
2023-04-26T13:22:54.547Z,100235.81
2023-04-26T13:25:22.501Z,100254.06
2023-04-26T13:27:51.942Z,100241.63
2023-04-26T13:30:19.960Z,100239.81
2023-04-26T13:32:48.275Z,100232.22
2023-04-26T13:35:16.730Z,100231.94
2023-04-26T13:37:46.616Z,100238.06
2023-04-26T13:40:15.059Z,100230.63
2023-04-26T13:42:43.009Z,100222.44
2023-04-26T13:45:12.426Z,100217.81
2023-04-26T13:47:40.939Z,100215.47
2023-04-26T13:50:09.295Z,100222.03
2023-04-26T13:52:37.436Z,100216.13
2023-04-26T13:55:07.820Z,100224.13
2023-04-26T13:57:36.180Z,100216.97
2023-04-26T14:00:05.222Z,100212.16
2023-04-26T14:02:39.942Z,100221.69
2023-04-26T14:05:09.439Z,100218.81
2023-04-26T14:07:37.768Z,100202.78
2023-04-26T14:10:08.463Z,100200.25
2023-04-26T14:12:37.473Z,100205.13
2023-04-26T14:15:06.722Z,100216.28
2023-04-26T14:17:35.635Z,100212.13
2023-04-26T14:20:03.817Z,100210.63
2023-04-26T14:22:32.240Z,100211.94
2023-04-26T14:25:00.396Z,100205.16
2023-04-26T14:27:30.433Z,100210.44
2023-04-26T14:30:01.139Z,100230.34
2023-04-26T14:32:29.553Z,100201.91
2023-04-26T14:34:57.660Z,100202.59
2023-04-26T14:37:25.828Z,100197.91
2023-04-26T14:39:53.811Z,100203.91
2023-04-26T14:42:21.847Z,100198.13
2023-04-26T14:44:51.608Z,100197.97
2023-04-26T14:47:19.693Z,100189.09
2023-04-26T14:49:48.143Z,100178.81
2023-04-26T14:52:16.386Z,100175.06
2023-04-26T14:54:44.628Z,100173.94
2023-04-26T14:57:13.181Z,100173.78
2023-04-26T14:59:42.133Z,100176.41
2023-04-26T15:02:12.793Z,100175.03
2023-04-26T15:04:41.625Z,100176.56
2023-04-26T15:07:17.838Z,100176.06
2023-04-26T15:09:52.960Z,100167.72
2023-04-26T15:12:21.245Z,100158.53
2023-04-26T15:14:49.369Z,100154.38
2023-04-26T15:17:18.896Z,100155.16
2023-04-26T15:19:47.370Z,100145.00
2023-04-26T15:22:15.958Z,100154.63
2023-04-26T15:24:43.876Z,100149.22
2023-04-26T15:27:12.950Z,100156.13
2023-04-26T15:29:40.869Z,100170.28
2023-04-26T15:32:09.274Z,100154.56
2023-04-26T15:34:40.342Z,100164.13
2023-04-26T15:37:09.394Z,100167.75
2023-04-26T15:39:39.993Z,100169.22
2023-04-26T15:42:08.560Z,100172.63
2023-04-26T15:44:36.793Z,100169.09
2023-04-26T15:47:05.130Z,100170.84
2023-04-26T15:49:33.254Z,100153.84
2023-04-26T15:52:03.213Z,100159.19
2023-04-26T15:54:31.164Z,100160.97
2023-04-26T15:56:59.433Z,100166.50
2023-04-26T15:59:27.710Z,100153.31
2023-04-26T16:01:56.307Z,100152.78
2023-04-26T16:04:24.486Z,100149.94
2023-04-26T16:06:52.843Z,100166.41
2023-04-26T16:09:25.185Z,100158.09
2023-04-26T16:11:53.911Z,100158.00
2023-04-26T16:14:21.830Z,100163.59
2023-04-26T16:16:50.847Z,100159.38
2023-04-26T16:19:18.895Z,100158.59
2023-04-26T16:21:47.403Z,100156.00
2023-04-26T16:24:16.592Z,100150.38
2023-04-26T16:26:46.383Z,100148.53
2023-04-26T16:29:16.797Z,100151.72
2023-04-26T16:31:45.214Z,100141.50
2023-04-26T16:34:13.677Z,100146.09
2023-04-26T16:36:44.104Z,100142.59
2023-04-26T16:39:15.857Z,100129.25
2023-04-26T16:41:46.395Z,100127.19
2023-04-26T16:44:16.232Z,100132.94
2023-04-26T16:46:44.336Z,100133.47
2023-04-26T16:49:12.742Z,100129.91
2023-04-26T16:51:44.778Z,100133.47
2023-04-26T16:54:13.328Z,100130.22
2023-04-26T16:56:41.475Z,100134.13
2023-04-26T16:59:15.794Z,100135.75
2023-04-26T17:01:44.222Z,100135.13
2023-04-26T17:04:13.347Z,100134.81
2023-04-26T17:06:42.296Z,100131.63
2023-04-26T17:09:13.557Z,100136.88
2023-04-26T17:11:43.890Z,100134.06
2023-04-26T17:14:17.194Z,100136.66
2023-04-26T17:16:45.399Z,100129.69
2023-04-26T17:19:14.161Z,100130.78
2023-04-26T17:21:42.244Z,100134.78
2023-04-26T17:24:10.645Z,100138.69
2023-04-26T17:26:38.924Z,100129.91
2023-04-26T17:29:08.076Z,100132.41
2023-04-26T17:31:37.814Z,100135.16
2023-04-26T17:34:09.112Z,100133.53
2023-04-26T17:36:37.815Z,100138.47
2023-04-26T17:39:07.497Z,100147.25
2023-04-26T17:41:36.676Z,100144.91
2023-04-26T17:44:05.966Z,100137.47
2023-04-26T17:46:35.728Z,100136.09
2023-04-26T17:49:17.552Z,100135.69
2023-04-26T17:51:48.679Z,100139.13
2023-04-26T17:54:17.319Z,100151.09
2023-04-26T17:56:47.426Z,100147.63
2023-04-26T17:59:15.852Z,100149.56
2023-04-26T18:01:44.718Z,100141.94
2023-04-26T18:04:17.134Z,100153.19
2023-04-26T18:06:45.933Z,100145.13
2023-04-26T18:09:17.455Z,100144.06
2023-04-26T18:11:47.940Z,100158.16
2023-04-26T18:14:16.437Z,100152.88
2023-04-26T18:16:45.100Z,100157.09
2023-04-26T18:19:17.409Z,100164.50
2023-04-26T18:21:45.713Z,100156.72
2023-04-26T18:24:14.318Z,100162.06
2023-04-26T18:26:43.128Z,100158.34
2023-04-26T18:29:11.304Z,100159.97
2023-04-26T18:31:41.252Z,100170.72
2023-04-26T18:34:11.252Z,100170.41
2023-04-26T18:36:42.005Z,100172.06
2023-04-26T18:39:10.795Z,100172.69
2023-04-26T18:41:39.357Z,100171.22
2023-04-26T18:44:13.563Z,100172.56
2023-04-26T18:46:43.422Z,100176.75
2023-04-26T18:49:19.173Z,100177.56
2023-04-26T18:51:49.024Z,100183.09
2023-04-26T18:54:20.670Z,100182.75
2023-04-26T18:56:49.405Z,100179.78
2023-04-26T18:59:18.043Z,100188.50
2023-04-26T19:01:49.904Z,100191.31
2023-04-26T19:04:20.584Z,100195.78
2023-04-26T19:06:54.364Z,100210.34
2023-04-26T19:09:27.548Z,100195.59
2023-04-26T19:11:57.504Z,100208.63
2023-04-26T19:14:25.951Z,100208.59
2023-04-26T19:16:54.857Z,100214.97
2023-04-26T19:19:25.520Z,100216.03
2023-04-26T19:21:56.138Z,100212.63
2023-04-26T19:24:26.609Z,100214.88
2023-04-26T19:26:56.216Z,100214.78
2023-04-26T19:29:24.851Z,100223.84
2023-04-26T19:31:54.763Z,100218.59
2023-04-26T19:34:24.108Z,100229.88
2023-04-26T19:36:53.211Z,100228.03
2023-04-26T19:39:24.440Z,100227.13
2023-04-26T19:41:53.764Z,100229.72
2023-04-26T19:44:23.428Z,100236.47
2023-04-26T19:46:53.538Z,100236.25
2023-04-26T19:49:22.371Z,100231.91
2023-04-26T19:51:51.030Z,100229.13
2023-04-26T19:54:23.100Z,100232.97
2023-04-26T19:56:52.546Z,100230.38
2023-04-26T19:59:21.679Z,100232.03
2023-04-26T20:01:53.926Z,100225.47
2023-04-26T20:04:23.329Z,100234.63
2023-04-26T20:06:52.692Z,100235.44
2023-04-26T20:09:22.772Z,100236.66
2023-04-26T20:11:52.638Z,100231.97
2023-04-26T20:14:20.939Z,100233.25
2023-04-26T20:16:49.631Z,100238.28
2023-04-26T20:19:17.595Z,100234.19
2023-04-26T20:21:46.129Z,100232.28
2023-04-26T20:24:15.408Z,100237.47
2023-04-26T20:26:46.054Z,100232.28
2023-04-26T20:29:14.530Z,100237.47
2023-04-26T20:31:42.937Z,100240.06
2023-04-26T20:34:11.875Z,100236.13
2023-04-26T20:36:41.394Z,100238.66
2023-04-26T20:39:11.088Z,100235.91
2023-04-26T20:41:39.725Z,100237.59
2023-04-26T20:44:11.856Z,100237.53
2023-04-26T20:46:40.522Z,100233.41
2023-04-26T20:49:09.653Z,100239.50
2023-04-26T20:51:38.816Z,100235.16
2023-04-26T20:54:07.047Z,100239.69
2023-04-26T20:56:35.948Z,100235.41
2023-04-26T20:59:05.289Z,100242.44
2023-04-26T21:01:36.526Z,100239.25
2023-04-26T21:04:05.188Z,100233.59
2023-04-26T21:06:34.201Z,100238.16
2023-04-26T21:09:04.051Z,100241.84
2023-04-26T21:11:32.768Z,100247.94
2023-04-26T21:14:02.924Z,100247.25
2023-04-26T21:16:31.725Z,100249.41
2023-04-26T21:19:02.417Z,100248.28
2023-04-26T21:21:31.298Z,100255.78
2023-04-26T21:24:00.260Z,100257.97
2023-04-26T21:26:29.363Z,100248.84
2023-04-26T21:28:58.283Z,100253.03
2023-04-26T21:31:27.238Z,100242.94
2023-04-26T21:33:55.924Z,100249.78
2023-04-26T21:36:27.124Z,100246.91
2023-04-26T21:38:55.983Z,100248.34
2023-04-26T21:41:26.085Z,100247.59
2023-04-26T21:43:55.367Z,100249.31
2023-04-26T21:46:24.012Z,100252.38
2023-04-26T21:48:52.944Z,100258.06
2023-04-26T21:51:21.765Z,100256.91
2023-04-26T21:53:55.272Z,100250.91
2023-04-26T21:56:24.525Z,100257.81
2023-04-26T21:58:53.468Z,100256.97
2023-04-26T22:01:21.802Z,100261.13
2023-04-26T22:03:50.799Z,100258.34
2023-04-26T22:06:19.842Z,100267.19
2023-04-26T22:08:49.728Z,100258.00
2023-04-26T22:11:20.108Z,100264.28
2023-04-26T22:13:50.092Z,100262.22
2023-04-26T22:16:19.607Z,100256.22
2023-04-26T22:18:48.018Z,100254.06
2023-04-26T22:21:16.590Z,100263.47
2023-04-26T22:23:45.105Z,100269.19
2023-04-26T22:26:13.682Z,100269.72
2023-04-26T22:28:43.657Z,100273.59
2023-04-26T22:31:12.158Z,100274.94
2023-04-26T22:33:40.726Z,100284.53
2023-04-26T22:36:11.690Z,100285.97
2023-04-26T22:38:42.705Z,100280.22
2023-04-26T22:41:12.920Z,100281.00
2023-04-26T22:43:44.688Z,100279.22
2023-04-26T22:46:14.931Z,100279.09
2023-04-26T22:48:43.455Z,100283.81
2023-04-26T22:51:11.855Z,100278.94
2023-04-26T22:53:42.777Z,100277.56
2023-04-26T22:56:14.051Z,100283.59
2023-04-26T22:58:43.806Z,100275.50
2023-04-26T23:01:11.917Z,100276.13
2023-04-26T23:03:43.035Z,100284.28
2023-04-26T23:06:11.285Z,100287.41
2023-04-26T23:08:40.077Z,100288.47
2023-04-26T23:11:08.974Z,100284.28
2023-04-26T23:13:38.170Z,100278.97
2023-04-26T23:16:09.310Z,100286.19
2023-04-26T23:18:37.708Z,100284.91
2023-04-26T23:21:06.702Z,100292.72
2023-04-26T23:23:34.850Z,100290.19
2023-04-26T23:26:07.761Z,100286.66
2023-04-26T23:28:36.650Z,100278.53
2023-04-26T23:31:05.350Z,100281.81
2023-04-26T23:33:34.877Z,100281.28
2023-04-26T23:36:03.659Z,100279.16
2023-04-26T23:38:32.011Z,100275.69
2023-04-26T23:41:00.285Z,100278.00
2023-04-26T23:43:28.332Z,100279.34
2023-04-26T23:45:56.854Z,100274.56
2023-04-26T23:48:25.367Z,100277.91
2023-04-26T23:50:57.322Z,100276.91
2023-04-26T23:53:25.400Z,100277.81
2023-04-26T23:55:53.338Z,100268.81
2023-04-26T23:58:22.309Z,100277.75
